createdAt,value
2023-01-19T00:00:20.513Z,100007.22
2023-01-19T00:00:51.898Z,100005.31
2023-01-19T00:01:24.577Z,100014.94
2023-01-19T00:01:56.173Z,100005.31
2023-01-19T00:02:27.551Z,100005.31
2023-01-19T00:02:58.927Z,100005.31
2023-01-19T00:03:30.345Z,100003.75
2023-01-19T00:04:01.860Z,100006.88
2023-01-19T00:04:33.193Z,100005.31
2023-01-19T00:05:05.440Z,100006.44
2023-01-19T00:05:36.812Z,100008.78
2023-01-19T00:06:08.991Z,100011.47
2023-01-19T00:06:40.388Z,100006.09
2023-01-19T00:07:11.851Z,100001.50
2023-01-19T00:07:43.253Z,100007.63
2023-01-19T00:08:14.986Z,100007.28
2023-01-19T00:08:48.625Z,100001.50
2023-01-19T00:09:20.062Z,100006.88
2023-01-19T00:09:51.572Z,99998.81
2023-01-19T00:10:23.164Z,100002.25
2023-01-19T00:10:54.497Z,99999.56
2023-01-19T00:11:25.977Z,99996.88
2023-01-19T00:11:57.303Z,100001.50
2023-01-19T00:12:28.706Z,100006.50
2023-01-19T00:13:00.337Z,100001.13
2023-01-19T00:13:32.496Z,100006.97
2023-01-19T00:14:04.279Z,99996.22
2023-01-19T00:14:35.695Z,99993.88
2023-01-19T00:15:07.668Z,99999.69
2023-01-19T00:15:39.326Z,100005.84
2023-01-19T00:16:11.317Z,99999.69
2023-01-19T00:16:42.667Z,99993.19
2023-01-19T00:17:14.043Z,99993.19
2023-01-19T00:17:45.351Z,99997.78
2023-01-19T00:18:16.689Z,100001.25
2023-01-19T00:18:50.543Z,99997.78
2023-01-19T00:19:21.920Z,99997.44
2023-01-19T00:19:53.286Z,100000.47
2023-01-19T00:20:24.668Z,99995.88
2023-01-19T00:20:56.051Z,99994.31
2023-01-19T00:21:27.412Z,100001.59
2023-01-19T00:21:58.745Z,100003.94
2023-01-19T00:22:30.071Z,100009.31
2023-01-19T00:23:02.926Z,100009.31
2023-01-19T00:23:34.504Z,100012.00
2023-01-19T00:24:06.436Z,100012.00
2023-01-19T00:24:37.769Z,100010.09
2023-01-19T00:25:09.723Z,100015.47
2023-01-19T00:25:43.730Z,100010.88
2023-01-19T00:26:16.520Z,100015.47
2023-01-19T00:26:47.940Z,100006.19
2023-01-19T00:27:19.339Z,100016.94
2023-01-19T00:27:50.712Z,100021.84
2023-01-19T00:28:22.070Z,100015.28
2023-01-19T00:28:53.705Z,100019.84
2023-01-19T00:29:25.089Z,100021.31
2023-01-19T00:29:56.403Z,100021.97
2023-01-19T00:30:27.741Z,100018.84
2023-01-19T00:30:59.127Z,100021.06
2023-01-19T00:31:33.896Z,100007.97
2023-01-19T00:32:06.027Z,100014.47
2023-01-19T00:32:37.448Z,100006.28
2023-01-19T00:33:10.470Z,100012.91
2023-01-19T00:33:41.848Z,100004.38
2023-01-19T00:34:13.272Z,100002.50
2023-01-19T00:34:49.401Z,100009.44
2023-01-19T00:35:20.834Z,100007.84
2023-01-19T00:35:54.901Z,100011.66
2023-01-19T00:36:26.481Z,100017.81
2023-01-19T00:36:57.988Z,100012.78
2023-01-19T00:37:29.332Z,100012.78
2023-01-19T00:38:01.355Z,100015.47
2023-01-19T00:38:32.733Z,100024.66
2023-01-19T00:39:04.140Z,100019.63
2023-01-19T00:39:35.524Z,100021.88
2023-01-19T00:40:07.784Z,100016.50
2023-01-19T00:40:39.295Z,100015.38
2023-01-19T00:41:10.693Z,100021.53
2023-01-19T00:42:00.500Z,100020.75
2023-01-19T00:42:40.776Z,100012.34
2023-01-19T00:43:12.089Z,100007.31
2023-01-19T00:43:43.558Z,100011.56
2023-01-19T00:44:15.150Z,100011.56
2023-01-19T00:44:46.729Z,100011.56
2023-01-19T00:45:21.156Z,100015.38
2023-01-19T00:45:52.661Z,100016.81
2023-01-19T00:46:27.124Z,100010.34
2023-01-19T00:46:58.501Z,100013.03
2023-01-19T00:47:29.898Z,100012.25
2023-01-19T00:48:01.699Z,100008.78
2023-01-19T00:48:33.104Z,100007.66
2023-01-19T00:49:05.412Z,100008.44
2023-01-19T00:49:36.771Z,100011.13
2023-01-19T00:50:11.837Z,100007.66
2023-01-19T00:50:43.226Z,100009.56
2023-01-19T00:51:14.540Z,100004.19
2023-01-19T00:51:46.047Z,100002.94
2023-01-19T00:52:17.458Z,100002.16
2023-01-19T00:52:48.995Z,99996.34
2023-01-19T00:53:20.392Z,100003.28
2023-01-19T00:53:51.855Z,99999.34
2023-01-19T00:54:23.329Z,100003.94
2023-01-19T00:54:54.664Z,99992.41
2023-01-19T00:55:27.772Z,99998.13
2023-01-19T00:55:59.137Z,100002.69
2023-01-19T00:56:33.556Z,100007.75
2023-01-19T00:57:05.074Z,100005.84
2023-01-19T00:57:36.906Z,100010.44
2023-01-19T00:58:08.239Z,100011.22
2023-01-19T00:58:39.580Z,100008.97
2023-01-19T00:59:10.943Z,100005.50
2023-01-19T00:59:42.478Z,100009.75
2023-01-19T01:00:17.088Z,100002.16
2023-01-19T01:00:48.688Z,100007.53
2023-01-19T01:01:20.297Z,100001.38
2023-01-19T01:02:11.999Z,100000.25
2023-01-19T01:02:44.517Z,99999.13
2023-01-19T01:03:16.155Z,100006.41
2023-01-19T01:03:47.751Z,99998.34
2023-01-19T01:05:09.012Z,99999.13
2023-01-19T01:05:42.483Z,99998.03
2023-01-19T01:06:14.141Z,99998.03
2023-01-19T01:06:45.716Z,99996.91
2023-01-19T01:07:17.249Z,99995.00
2023-01-19T01:07:49.741Z,100006.19
2023-01-19T01:08:21.112Z,99996.56
2023-01-19T01:08:52.825Z,99994.34
2023-01-19T01:09:24.476Z,99998.59
2023-01-19T01:09:58.873Z,99999.34
2023-01-19T01:10:30.301Z,100003.59
2023-01-19T01:11:01.836Z,99995.53
2023-01-19T01:11:33.148Z,99995.53
2023-01-19T01:12:04.690Z,99992.84
2023-01-19T01:12:38.362Z,99988.72
2023-01-19T01:13:19.971Z,99994.09
2023-01-19T01:13:53.040Z,99983.34
2023-01-19T01:14:29.951Z,99983.34
2023-01-19T01:15:01.752Z,99982.22
2023-01-19T01:15:33.256Z,99983.34
2023-01-19T01:16:05.388Z,99991.84
2023-01-19T01:16:36.856Z,100000.69
2023-01-19T01:17:11.344Z,99986.47
2023-01-19T01:17:46.741Z,99988.84
2023-01-19T01:18:18.163Z,99987.28
2023-01-19T01:18:49.540Z,99989.97
2023-01-19T01:19:21.569Z,99990.75
2023-01-19T01:19:52.960Z,99996.91
2023-01-19T01:20:27.835Z,99991.53
2023-01-19T01:21:04.720Z,99994.22
2023-01-19T01:21:37.234Z,99990.75
2023-01-19T01:22:10.082Z,99999.59
2023-01-19T01:22:45.088Z,99998.00
2023-01-19T01:23:16.415Z,99990.28
2023-01-19T01:23:47.833Z,99999.91
2023-01-19T01:24:19.232Z,99999.47
2023-01-19T01:25:09.173Z,99998.34
2023-01-19T01:25:42.498Z,99997.91
2023-01-19T01:26:13.852Z,99993.22
2023-01-19T01:26:45.247Z,99993.22
2023-01-19T01:27:35.450Z,99998.94
2023-01-19T01:28:08.672Z,99995.78
2023-01-19T01:28:40.017Z,99989.97
2023-01-19T01:29:11.395Z,99996.13
2023-01-19T01:30:39.921Z,99994.56
2023-01-19T01:31:11.327Z,99994.88
2023-01-19T01:31:42.789Z,99999.47
2023-01-19T01:32:14.908Z,100003.72
2023-01-19T01:32:46.365Z,99999.47
2023-01-19T01:33:39.875Z,99992.09
2023-01-19T01:34:09.031Z,100005.19
2023-01-19T01:34:41.037Z,99995.22
2023-01-19T01:35:13.764Z,100004.06
2023-01-19T01:35:45.129Z,100005.19
2023-01-19T01:36:16.457Z,99998.25
2023-01-19T01:36:47.812Z,100001.72
2023-01-19T01:37:19.213Z,100002.50
2023-01-19T01:37:50.599Z,100000.91
2023-01-19T01:38:22.006Z,100005.97
2023-01-19T01:38:53.343Z,100001.72
2023-01-19T01:39:24.861Z,99997.44
2023-01-19T01:40:45.125Z,100004.41
2023-01-19T01:41:16.529Z,99999.81
2023-01-19T01:41:48.288Z,100000.91
2023-01-19T01:42:25.426Z,100002.81
2023-01-19T01:42:56.755Z,99999.03
2023-01-19T01:43:42.664Z,100000.91
2023-01-19T01:44:49.456Z,100000.13
2023-01-19T01:45:31.952Z,100007.84
2023-01-19T01:46:03.508Z,100005.97
2023-01-19T01:46:34.915Z,100009.44
2023-01-19T01:47:07.155Z,100009.44
2023-01-19T01:47:44.123Z,100004.84
2023-01-19T01:48:18.738Z,100005.19
2023-01-19T01:49:12.556Z,100014.81
2023-01-19T01:49:45.020Z,100007.41
2023-01-19T01:50:28.652Z,100014.00
2023-01-19T01:51:25.557Z,100012.91
2023-01-19T01:51:57.131Z,100010.22
2023-01-19T01:52:31.699Z,100016.38
2023-01-19T01:55:02.441Z,100005.75
2023-01-19T01:55:37.983Z,100011.13
2023-01-19T01:56:15.159Z,100003.06
2023-01-19T01:56:48.972Z,100008.44
2023-01-19T01:57:20.366Z,100006.53
2023-01-19T01:58:46.712Z,100006.19
2023-01-19T01:59:41.953Z,100008.88
2023-01-19T02:00:14.459Z,99997.03
2023-01-19T02:01:04.421Z,100002.41
2023-01-19T02:01:55.197Z,100004.72
2023-01-19T02:02:49.083Z,100002.81
2023-01-19T02:03:23.477Z,100010.53
2023-01-19T02:03:57.200Z,100011.31
2023-01-19T02:04:31.309Z,100010.53
2023-01-19T02:05:10.917Z,100012.56
2023-01-19T02:05:43.239Z,100007.19
2023-01-19T02:06:14.796Z,100008.31
2023-01-19T02:07:05.597Z,100010.66
2023-01-19T02:08:04.132Z,100011.44
2023-01-19T02:09:02.020Z,100015.38
2023-01-19T02:09:55.742Z,100016.16
2023-01-19T02:10:45.884Z,100014.25
2023-01-19T02:11:36.296Z,100011.56
2023-01-19T02:12:26.535Z,100017.38
2023-01-19T02:13:16.812Z,100010.91
2023-01-19T02:13:48.684Z,100015.50
2023-01-19T02:14:20.039Z,100020.53
2023-01-19T02:14:51.456Z,100021.31
2023-01-19T02:15:22.841Z,100015.94
2023-01-19T02:15:57.947Z,100014.03
2023-01-19T02:16:29.969Z,100018.28
2023-01-19T02:17:01.472Z,100026.03
2023-01-19T02:17:33.017Z,100014.50
2023-01-19T02:18:04.614Z,100023.00
2023-01-19T02:18:37.224Z,100017.63
2023-01-19T02:19:13.671Z,100020.31
2023-01-19T02:19:46.417Z,100011.09
2023-01-19T02:20:22.970Z,100014.25
2023-01-19T02:21:08.455Z,100022.31
2023-01-19T02:22:09.659Z,100010.44
2023-01-19T02:22:47.893Z,100021.19
2023-01-19T02:23:32.225Z,100017.38
2023-01-19T02:24:03.992Z,100026.22
2023-01-19T02:24:35.899Z,100017.81
2023-01-19T02:25:07.533Z,100018.28
2023-01-19T02:25:40.420Z,100011.78
2023-01-19T02:26:21.424Z,100013.34
2023-01-19T02:26:53.256Z,100010.66
2023-01-19T02:27:24.770Z,100011.13
2023-01-19T02:27:56.903Z,100016.94
2023-01-19T02:28:29.404Z,100017.38
2023-01-19T02:29:15.882Z,100020.06
2023-01-19T02:29:47.628Z,100019.75
2023-01-19T02:30:19.444Z,100014.38
2023-01-19T02:30:51.003Z,100020.16
2023-01-19T02:31:22.396Z,100022.06
2023-01-19T02:31:55.658Z,100025.19
2023-01-19T02:32:26.996Z,100024.09
2023-01-19T02:32:58.943Z,100021.41
2023-01-19T02:33:30.654Z,100031.81
2023-01-19T02:34:03.151Z,100036.06
2023-01-19T02:34:35.266Z,100034.16
2023-01-19T02:35:07.033Z,100033.03
2023-01-19T02:35:40.198Z,100027.66
2023-01-19T02:36:15.196Z,100033.81
2023-01-19T02:36:53.972Z,100030.81
2023-01-19T02:37:28.544Z,100030.03
2023-01-19T02:38:02.311Z,100036.19
2023-01-19T02:38:35.032Z,100034.63
2023-01-19T02:39:08.961Z,100035.06
2023-01-19T02:39:50.639Z,100033.16
2023-01-19T02:40:24.868Z,100034.72
2023-01-19T02:40:59.484Z,100034.38
2023-01-19T02:41:36.397Z,100032.47
2023-01-19T02:42:18.831Z,100040.56
2023-01-19T02:42:51.819Z,100037.88
2023-01-19T02:43:24.901Z,100040.22
2023-01-19T02:43:58.529Z,100038.31
2023-01-19T02:44:30.834Z,100039.09
2023-01-19T02:45:06.691Z,100041.44
2023-01-19T02:45:39.550Z,100041.78
2023-01-19T02:46:11.358Z,100040.31
2023-01-19T02:46:42.715Z,100041.44
2023-01-19T02:47:14.236Z,100041.88
2023-01-19T02:47:50.610Z,100039.97
2023-01-19T02:48:22.262Z,100037.97
2023-01-19T02:48:59.109Z,100046.47
2023-01-19T02:49:30.954Z,100050.38
2023-01-19T02:50:02.398Z,100048.03
2023-01-19T02:50:45.994Z,100046.13
2023-01-19T02:51:19.703Z,100042.66
2023-01-19T02:51:51.126Z,100045.34
2023-01-19T02:52:22.725Z,100056.09
2023-01-19T02:53:04.110Z,100057.66
2023-01-19T02:54:12.909Z,100057.66
2023-01-19T02:55:09.217Z,100045.78
2023-01-19T02:55:44.984Z,100052.28
2023-01-19T02:56:32.696Z,100056.09
2023-01-19T02:57:20.120Z,100057.66
2023-01-19T02:58:23.169Z,100053.41
2023-01-19T02:59:03.427Z,100059.56
2023-01-19T02:59:48.533Z,100063.03
2023-01-19T03:00:20.007Z,100054.97
2023-01-19T03:01:30.067Z,100062.72
2023-01-19T03:02:10.629Z,100061.91
2023-01-19T03:03:11.928Z,100061.91
2023-01-19T03:04:07.465Z,100060.00
2023-01-19T03:05:16.259Z,100067.28
2023-01-19T03:06:05.881Z,100059.22
2023-01-19T03:07:01.067Z,100061.91
2023-01-19T03:08:55.797Z,100076.16
2023-01-19T03:09:49.965Z,100071.88
2023-01-19T03:11:02.941Z,100077.72
2023-01-19T03:11:39.254Z,100073.47
2023-01-19T03:12:39.588Z,100077.72
2023-01-19T03:13:35.143Z,100085.00
2023-01-19T03:14:12.192Z,100075.03
2023-01-19T03:14:47.728Z,100075.81
2023-01-19T03:15:28.843Z,100086.56
2023-01-19T03:16:11.968Z,100075.81
2023-01-19T03:16:51.129Z,100090.81
2023-01-19T03:17:22.664Z,100073.47
2023-01-19T03:17:54.529Z,100078.50
2023-01-19T03:18:29.529Z,100077.38
2023-01-19T03:20:28.741Z,100059.69
2023-01-19T03:21:05.477Z,100066.63
2023-01-19T03:21:39.768Z,100065.06
2023-01-19T03:22:14.700Z,100070.09
2023-01-19T03:22:50.774Z,100062.03
2023-01-19T03:23:28.357Z,100062.03
2023-01-19T03:24:04.356Z,100068.97
2023-01-19T03:24:40.094Z,100071.66
2023-01-19T03:25:13.167Z,100064.38
2023-01-19T03:25:47.228Z,100068.19
2023-01-19T03:26:22.926Z,100076.72
2023-01-19T03:27:04.085Z,100075.94
2023-01-19T03:27:42.181Z,100068.19
2023-01-19T03:28:14.871Z,100071.66
2023-01-19T03:28:48.611Z,100075.16
2023-01-19T03:29:22.463Z,100077.50
2023-01-19T03:30:01.635Z,100066.75
2023-01-19T03:30:39.238Z,100072.13
2023-01-19T03:31:16.325Z,100074.81
2023-01-19T03:31:50.650Z,100077.50
2023-01-19T03:32:29.669Z,100081.75
2023-01-19T03:33:07.741Z,100078.28
2023-01-19T03:33:43.243Z,100068.66
2023-01-19T03:34:17.435Z,100079.06
2023-01-19T03:34:51.399Z,100077.50
2023-01-19T03:35:26.277Z,100085.22
2023-01-19T03:36:03.778Z,100069.09
2023-01-19T03:36:40.633Z,100069.09
2023-01-19T03:37:14.247Z,100070.22
2023-01-19T03:37:49.008Z,100077.16
2023-01-19T03:38:26.215Z,100089.94
2023-01-19T03:39:00.976Z,100092.63
2023-01-19T03:39:32.545Z,100088.38
2023-01-19T03:40:04.268Z,100088.38
2023-01-19T03:40:36.647Z,100093.75
2023-01-19T03:41:16.818Z,100090.72
2023-01-19T03:41:52.269Z,100090.72
2023-01-19T03:42:25.407Z,100088.47
2023-01-19T03:42:58.233Z,100079.63
2023-01-19T03:43:31.693Z,100078.50
2023-01-19T03:44:05.526Z,100086.22
2023-01-19T03:44:40.414Z,100085.09
2023-01-19T03:45:13.634Z,100085.47
2023-01-19T03:45:45.979Z,100089.69
2023-01-19T03:46:19.060Z,100089.69
2023-01-19T03:46:51.627Z,100087.00
2023-01-19T03:47:25.079Z,100080.84
2023-01-19T03:47:58.041Z,100085.47
2023-01-19T03:48:30.630Z,100084.31
2023-01-19T03:49:02.261Z,100084.66
2023-01-19T03:49:35.318Z,100087.00
2023-01-19T03:50:12.812Z,100089.69
2023-01-19T03:50:44.219Z,100101.22
2023-01-19T03:51:16.936Z,100098.53
2023-01-19T03:51:48.446Z,100097.75
2023-01-19T03:52:32.431Z,100107.38
2023-01-19T03:53:11.383Z,100107.38
2023-01-19T03:53:43.073Z,100097.75
2023-01-19T03:54:14.491Z,100095.06
2023-01-19T03:54:45.832Z,100102.00
2023-01-19T03:55:17.229Z,100088.16
2023-01-19T03:55:50.919Z,100098.13
2023-01-19T03:56:25.111Z,100100.44
2023-01-19T03:56:56.527Z,100107.72
2023-01-19T03:57:28.019Z,100109.66
2023-01-19T03:57:59.368Z,100103.03
2023-01-19T03:58:30.935Z,100103.03
2023-01-19T03:59:51.352Z,100104.28
2023-01-19T04:00:22.763Z,100106.97
2023-01-19T04:00:54.319Z,100104.94
2023-01-19T04:01:26.072Z,100103.03
2023-01-19T04:01:57.792Z,100119.97
2023-01-19T04:02:29.316Z,100125.69
2023-01-19T04:03:01.143Z,100128.38
2023-01-19T04:03:32.782Z,100134.53
2023-01-19T04:04:04.144Z,100116.81
2023-01-19T04:04:35.573Z,100118.41
2023-01-19T04:05:07.260Z,100112.56
2023-01-19T04:05:39.453Z,100126.81
2023-01-19T04:06:10.902Z,100126.81
2023-01-19T04:06:43.277Z,100116.81
2023-01-19T04:07:14.682Z,100114.81
2023-01-19T04:07:49.100Z,100111.78
2023-01-19T04:09:09.332Z,100123.66
2023-01-19T04:09:41.065Z,100119.75
2023-01-19T04:10:12.861Z,100117.03
2023-01-19T04:10:44.273Z,100116.25
2023-01-19T04:11:16.288Z,100120.84
2023-01-19T04:11:47.686Z,100115.03
2023-01-19T04:12:19.064Z,100115.81
2023-01-19T04:12:56.375Z,100124.66
2023-01-19T04:13:30.443Z,100115.81
2023-01-19T04:14:01.836Z,100119.63
2023-01-19T04:14:33.164Z,100119.63
2023-01-19T04:15:05.070Z,100114.56
2023-01-19T04:15:36.602Z,100121.84
2023-01-19T04:16:09.691Z,100114.56
2023-01-19T04:16:41.056Z,100116.81
2023-01-19T04:17:12.487Z,100120.28
2023-01-19T04:17:43.813Z,100119.06
2023-01-19T04:18:15.227Z,100114.81
2023-01-19T04:18:47.249Z,100113.59
2023-01-19T04:19:18.679Z,100111.69
2023-01-19T04:19:50.130Z,100115.50
2023-01-19T04:20:21.675Z,100119.75
2023-01-19T04:20:53.227Z,100122.78
2023-01-19T04:21:24.866Z,100115.81
2023-01-19T04:21:57.058Z,100119.63
2023-01-19T04:22:28.509Z,100114.25
2023-01-19T04:23:01.448Z,100116.94
2023-01-19T04:23:34.111Z,100116.50
2023-01-19T04:24:55.622Z,100120.28
2023-01-19T04:25:28.228Z,100106.41
2023-01-19T04:26:04.902Z,100119.84
2023-01-19T04:26:36.242Z,100114.47
2023-01-19T04:27:07.581Z,100111.34
2023-01-19T04:27:38.924Z,100112.13
2023-01-19T04:28:59.143Z,100114.34
2023-01-19T04:29:30.491Z,100115.47
2023-01-19T04:30:03.767Z,100114.69
2023-01-19T04:30:35.125Z,100112.66
2023-01-19T04:31:07.311Z,100108.44
2023-01-19T04:31:38.764Z,100112.66
2023-01-19T04:32:10.348Z,100109.63
2023-01-19T04:32:41.725Z,100111.53
2023-01-19T04:33:13.221Z,100110.34
2023-01-19T04:33:45.014Z,100112.66
2023-01-19T04:34:16.484Z,100106.88
2023-01-19T04:34:47.892Z,100115.72
2023-01-19T04:35:19.551Z,100115.59
2023-01-19T04:35:54.398Z,100115.59
2023-01-19T04:36:25.924Z,100120.97
2023-01-19T04:36:57.253Z,100119.72
2023-01-19T04:37:28.644Z,100122.75
2023-01-19T04:38:00.240Z,100133.16
2023-01-19T04:38:31.693Z,100125.09
2023-01-19T04:39:03.120Z,100121.19
2023-01-19T04:39:35.094Z,100122.75
2023-01-19T04:40:07.324Z,100126.22
2023-01-19T04:40:38.853Z,100125.44
2023-01-19T04:41:10.374Z,100127.78
2023-01-19T04:41:41.950Z,100131.59
2023-01-19T04:42:13.849Z,100126.22
2023-01-19T04:42:45.569Z,100132.38
2023-01-19T04:43:17.143Z,100124.97
2023-01-19T04:43:48.773Z,100123.06
2023-01-19T04:44:20.236Z,100130.03
2023-01-19T04:44:52.648Z,100131.13
2023-01-19T04:45:44.749Z,100131.13
2023-01-19T04:47:05.248Z,100134.94
2023-01-19T04:47:37.173Z,100133.03
2023-01-19T04:48:08.768Z,100131.47
2023-01-19T04:48:41.389Z,100138.41
2023-01-19T04:49:13.945Z,100139.53
2023-01-19T04:49:45.579Z,100136.06
2023-01-19T04:50:17.727Z,100140.66
2023-01-19T04:50:51.001Z,100136.06
2023-01-19T04:51:22.361Z,100136.41
2023-01-19T04:51:54.468Z,100135.28
2023-01-19T04:52:34.794Z,100134.50
2023-01-19T04:53:06.167Z,100140.97
2023-01-19T04:53:37.543Z,100135.59
2023-01-19T04:54:09.173Z,100143.22
2023-01-19T04:54:40.745Z,100139.41
2023-01-19T04:55:30.661Z,100144.44
2023-01-19T04:56:02.061Z,100141.44
2023-01-19T04:56:33.438Z,100137.50
2023-01-19T04:57:04.789Z,100142.56
2023-01-19T04:57:55.089Z,100134.03
2023-01-19T04:58:26.554Z,100139.06
2023-01-19T04:58:57.885Z,100147.47
2023-01-19T04:59:29.277Z,100145.56
2023-01-19T05:00:01.052Z,100147.81
2023-01-19T05:00:32.400Z,100149.38
2023-01-19T05:01:07.955Z,100156.66
2023-01-19T05:01:39.488Z,100150.16
2023-01-19T05:02:11.665Z,100148.91
2023-01-19T05:02:45.081Z,100162.03
2023-01-19T05:03:16.595Z,100153.19
2023-01-19T05:03:48.036Z,100155.88
2023-01-19T05:04:19.652Z,100156.66
2023-01-19T05:04:51.736Z,100163.59
2023-01-19T05:05:23.353Z,100157.75
2023-01-19T05:05:54.818Z,100160.44
2023-01-19T05:06:26.284Z,100159.25
2023-01-19T05:06:58.241Z,100163.47
2023-01-19T05:07:29.911Z,100160.44
2023-01-19T05:08:01.321Z,100161.94
2023-01-19T05:08:32.742Z,100154.97
2023-01-19T05:09:04.173Z,100161.94
2023-01-19T05:09:35.648Z,100174.22
2023-01-19T05:10:07.550Z,100164.63
2023-01-19T05:10:39.079Z,100165.41
2023-01-19T05:11:10.816Z,100170.41
2023-01-19T05:11:42.260Z,100164.25
2023-01-19T05:12:13.652Z,100164.25
2023-01-19T05:13:04.376Z,100173.56
2023-01-19T05:13:36.083Z,100171.97
2023-01-19T05:14:07.424Z,100171.19
2023-01-19T05:14:38.799Z,100175.47
2023-01-19T05:15:11.263Z,100179.72
2023-01-19T05:15:42.733Z,100173.56
2023-01-19T05:16:14.381Z,100177.81
2023-01-19T05:16:45.778Z,100170.53
2023-01-19T05:17:17.121Z,100172.13
2023-01-19T05:17:48.436Z,100180.16
2023-01-19T05:18:38.460Z,100179.38
2023-01-19T05:19:09.818Z,100177.81
2023-01-19T05:19:41.328Z,100177.81
2023-01-19T05:20:16.092Z,100172.44
2023-01-19T05:20:47.829Z,100185.53
2023-01-19T05:21:20.080Z,100178.59
2023-01-19T05:21:51.744Z,100178.59
2023-01-19T05:22:23.122Z,100171.31
2023-01-19T05:22:54.584Z,100176.69
2023-01-19T05:23:25.960Z,100180.84
2023-01-19T05:23:57.334Z,100178.28
2023-01-19T05:24:29.282Z,100181.28
2023-01-19T05:25:01.660Z,100176.69
2023-01-19T05:26:21.640Z,100178.59
2023-01-19T05:26:53.171Z,100172.44
2023-01-19T05:27:24.531Z,100171.66
2023-01-19T05:27:55.903Z,100177.50
2023-01-19T05:28:32.850Z,100171.31
2023-01-19T05:29:04.297Z,100174.00
2023-01-19T05:29:35.668Z,100166.63
2023-01-19T05:30:07.682Z,100171.66
2023-01-19T05:30:39.212Z,100175.13
2023-01-19T05:31:10.850Z,100177.50
2023-01-19T05:31:42.338Z,100182.06
2023-01-19T05:32:13.823Z,100180.16
2023-01-19T05:32:45.259Z,100183.19
2023-01-19T05:33:16.669Z,100170.53
2023-01-19T05:33:48.947Z,100182.88
2023-01-19T05:34:20.361Z,100175.91
2023-01-19T05:34:51.700Z,100185.53
2023-01-19T05:35:35.264Z,100182.06
2023-01-19T05:36:07.413Z,100180.97
2023-01-19T05:36:38.827Z,100182.53
2023-01-19T05:37:28.883Z,100181.75
2023-01-19T05:38:00.695Z,100182.53
2023-01-19T05:38:35.934Z,100180.63
2023-01-19T05:39:07.941Z,100178.72
2023-01-19T05:39:39.297Z,100187.56
2023-01-19T05:40:11.345Z,100188.38
2023-01-19T05:40:42.729Z,100188.38
2023-01-19T05:41:14.204Z,100183.00
2023-01-19T05:41:45.817Z,100192.63
2023-01-19T05:42:17.631Z,100193.84
2023-01-19T05:42:49.017Z,100193.41
2023-01-19T05:43:20.552Z,100194.66
2023-01-19T05:43:52.108Z,100194.66
2023-01-19T05:44:23.472Z,100192.28
2023-01-19T05:44:54.870Z,100195.44
2023-01-19T05:45:29.263Z,100191.63
2023-01-19T05:46:00.624Z,100194.66
2023-01-19T05:46:33.459Z,100200.81
2023-01-19T05:47:05.186Z,100202.84
2023-01-19T05:47:36.488Z,100213.59
2023-01-19T05:48:09.532Z,100209.00
2023-01-19T05:48:41.565Z,100212.47
2023-01-19T05:49:13.429Z,100211.69
2023-01-19T05:49:44.797Z,100215.16
2023-01-19T05:50:16.244Z,100216.72
2023-01-19T05:50:49.495Z,100204.41
2023-01-19T05:51:20.977Z,100204.41
2023-01-19T05:51:52.317Z,100201.03
2023-01-19T05:52:24.956Z,100194.09
2023-01-19T05:52:56.460Z,100200.25
2023-01-19T05:53:28.796Z,100201.81
2023-01-19T05:54:01.015Z,100198.78
2023-01-19T05:54:32.406Z,100198.00
2023-01-19T05:55:03.963Z,100200.69
2023-01-19T05:55:35.441Z,100199.47
2023-01-19T05:56:09.344Z,100207.31
2023-01-19T05:56:41.334Z,100211.56
2023-01-19T05:57:12.749Z,100211.13
2023-01-19T05:57:44.215Z,100203.97
2023-01-19T05:58:15.536Z,100207.78
2023-01-19T05:58:46.859Z,100207.44
2023-01-19T05:59:24.037Z,100208.22
2023-01-19T05:59:55.431Z,100210.56
2023-01-19T06:00:27.531Z,100203.31
2023-01-19T06:01:03.308Z,100208.69
2023-01-19T06:01:38.772Z,100209.91
2023-01-19T06:02:11.244Z,100214.50
2023-01-19T06:02:43.370Z,100209.91
2023-01-19T06:03:14.857Z,100210.69
2023-01-19T06:03:47.239Z,100203.09
2023-01-19T06:04:19.297Z,100209.25
2023-01-19T06:04:51.004Z,100210.38
2023-01-19T06:05:22.685Z,100212.72
2023-01-19T06:05:57.280Z,100217.75
2023-01-19T06:06:28.893Z,100217.75
2023-01-19T06:07:00.543Z,100217.75
2023-01-19T06:08:20.916Z,100212.38
2023-01-19T06:08:52.368Z,100221.22
2023-01-19T06:09:23.993Z,100219.31
2023-01-19T06:09:55.432Z,100223.91
2023-01-19T06:10:26.836Z,100219.69
2023-01-19T06:10:58.239Z,100223.13
2023-01-19T06:11:29.660Z,100223.13
2023-01-19T06:12:01.614Z,100220.78
2023-01-19T06:12:32.967Z,100218.88
2023-01-19T06:13:04.352Z,100224.59
2023-01-19T06:13:35.821Z,100223.03
2023-01-19T06:14:07.185Z,100218.78
2023-01-19T06:14:38.820Z,100227.63
2023-01-19T06:15:10.691Z,100226.03
2023-01-19T06:15:43.698Z,100226.03
2023-01-19T06:16:15.276Z,100221.47
2023-01-19T06:16:47.071Z,100224.47
2023-01-19T06:17:20.444Z,100229.84
2023-01-19T06:17:51.979Z,100226.38
2023-01-19T06:18:23.575Z,100224.81
2023-01-19T06:18:56.022Z,100222.78
2023-01-19T06:19:27.469Z,100227.81
2023-01-19T06:19:58.800Z,100219.63
2023-01-19T06:20:30.222Z,100231.31
2023-01-19T06:21:09.357Z,100236.22
2023-01-19T06:21:40.780Z,100236.22
2023-01-19T06:22:12.148Z,100241.13
2023-01-19T06:22:43.671Z,100241.94
2023-01-19T06:23:15.055Z,100246.50
2023-01-19T06:23:46.442Z,100247.63
2023-01-19T06:24:18.135Z,100246.84
2023-01-19T06:24:49.593Z,100255.69
2023-01-19T06:25:21.128Z,100256.03
2023-01-19T06:25:52.575Z,100256.47
2023-01-19T06:26:24.021Z,100241.81
2023-01-19T06:27:13.855Z,100251.09
2023-01-19T06:27:46.253Z,100238.78
2023-01-19T06:28:18.041Z,100249.22
2023-01-19T06:28:52.016Z,100248.88
2023-01-19T06:29:23.405Z,100253.13
2023-01-19T06:29:54.876Z,100251.56
2023-01-19T06:30:26.979Z,100252.03
2023-01-19T06:30:58.613Z,100255.03
2023-01-19T06:31:30.160Z,100256.63
2023-01-19T06:32:01.677Z,100261.66
2023-01-19T06:32:33.297Z,100262.44
2023-01-19T06:33:04.772Z,100264.34
2023-01-19T06:33:36.317Z,100265.13
2023-01-19T06:34:08.447Z,100269.41
2023-01-19T06:34:43.495Z,100269.41
2023-01-19T06:35:15.293Z,100283.63
2023-01-19T06:35:48.721Z,100285.53
2023-01-19T06:36:20.230Z,100285.53
2023-01-19T06:36:51.614Z,100284.41
2023-01-19T06:37:23.133Z,100283.63
2023-01-19T06:37:54.533Z,100284.41
2023-01-19T06:38:25.952Z,100275.88
2023-01-19T06:38:57.294Z,100285.19
2023-01-19T06:39:47.606Z,100288.66
2023-01-19T06:40:19.204Z,100287.56
2023-01-19T06:40:55.538Z,100288.34
2023-01-19T06:41:26.861Z,100284.88
2023-01-19T06:41:58.274Z,100283.75
2023-01-19T06:42:29.698Z,100281.38
2023-01-19T06:43:01.741Z,100289.59
2023-01-19T06:43:33.257Z,100285.31
2023-01-19T06:44:05.768Z,100286.91
2023-01-19T06:44:37.103Z,100279.94
2023-01-19T06:45:09.980Z,100282.63